createdAt,value
2023-02-20T00:01:40.092Z,11.3
2023-02-20T00:04:17.041Z,11.2
2023-02-20T00:06:50.105Z,11.2
2023-02-20T00:09:31.308Z,11.3
2023-02-20T00:12:08.202Z,11.2
2023-02-20T00:14:40.771Z,11.2
2023-02-20T00:17:13.420Z,11.2
2023-02-20T00:19:50.105Z,11.2
2023-02-20T00:22:23.388Z,11.2
2023-02-20T00:24:56.317Z,11.1
2023-02-20T00:27:28.984Z,11.1
2023-02-20T00:30:05.806Z,11
2023-02-20T00:32:43.097Z,11
2023-02-20T00:35:23.544Z,10.9
2023-02-20T00:37:54.934Z,11
2023-02-20T00:40:29.139Z,10.9
2023-02-20T00:43:02.990Z,11
2023-02-20T00:45:40.112Z,11.1
2023-02-20T00:48:13.075Z,11.1
2023-02-20T00:50:45.736Z,11.1
2023-02-20T00:53:17.963Z,11
2023-02-20T00:55:51.668Z,11
2023-02-20T00:58:25.484Z,11
2023-02-20T01:00:58.266Z,11
2023-02-20T01:03:34.490Z,11
2023-02-20T01:06:12.870Z,10.9
2023-02-20T01:08:45.392Z,10.9
2023-02-20T01:11:18.494Z,11
2023-02-20T01:13:55.242Z,10.9
2023-02-20T01:16:32.621Z,10.9
2023-02-20T01:19:07.003Z,10.9
2023-02-20T01:21:40.247Z,10.9
2023-02-20T01:24:13.276Z,10.9
2023-02-20T01:26:46.120Z,11
2023-02-20T01:29:23.328Z,10.9
2023-02-20T01:31:55.745Z,10.9
2023-02-20T01:34:32.178Z,11
2023-02-20T01:37:05.551Z,11
2023-02-20T01:39:38.707Z,11
2023-02-20T01:42:11.325Z,11
2023-02-20T01:44:44.801Z,11
2023-02-20T01:47:17.997Z,10.9
2023-02-20T01:49:54.867Z,10.9
2023-02-20T01:52:34.891Z,10.9
2023-02-20T01:55:08.225Z,10.9
2023-02-20T01:57:46.593Z,10.9
2023-02-20T02:00:19.786Z,10.9
2023-02-20T02:02:56.851Z,10.9
2023-02-20T02:05:29.694Z,10.9
2023-02-20T02:08:07.447Z,10.9
2023-02-20T02:10:45.118Z,10.9
2023-02-20T02:13:17.798Z,10.9
2023-02-20T02:15:54.547Z,10.9
2023-02-20T02:18:28.364Z,10.9
2023-02-20T02:21:01.282Z,10.9
2023-02-20T02:23:38.660Z,10.9
2023-02-20T02:26:12.824Z,10.9
2023-02-20T02:28:45.584Z,10.8
2023-02-20T02:31:18.211Z,10.8
2023-02-20T02:33:54.992Z,10.8
2023-02-20T02:36:28.018Z,10.8
2023-02-20T02:39:01.245Z,10.8
2023-02-20T02:41:37.984Z,10.8
2023-02-20T02:44:19.117Z,10.7
2023-02-20T02:46:52.317Z,10.7
2023-02-20T02:49:29.111Z,10.6
2023-02-20T02:52:05.976Z,10.7
2023-02-20T02:54:42.989Z,10.7
2023-02-20T02:57:16.358Z,10.7
2023-02-20T02:59:49.804Z,10.7
2023-02-20T03:02:22.712Z,10.7
2023-02-20T03:04:55.607Z,10.7
2023-02-20T03:07:28.833Z,10.6
2023-02-20T03:10:01.945Z,10.6
2023-02-20T03:12:34.626Z,10.6
2023-02-20T03:15:11.478Z,10.6
2023-02-20T03:17:44.511Z,10.6
2023-02-20T03:20:17.320Z,10.5
2023-02-20T03:22:50.396Z,10.5
2023-02-20T03:25:23.376Z,10.5
2023-02-20T03:28:00.093Z,10.5
2023-02-20T03:30:33.119Z,10.4
2023-02-20T03:33:05.973Z,10.4
2023-02-20T03:35:37.253Z,10.3
2023-02-20T03:38:13.592Z,10.3
2023-02-20T03:40:46.943Z,10.3
2023-02-20T03:43:19.673Z,10.3
2023-02-20T03:45:56.433Z,10.2
2023-02-20T03:48:29.610Z,10.2
2023-02-20T03:51:03.445Z,10.2
2023-02-20T03:53:36.752Z,10.3
2023-02-20T03:56:14.597Z,10.3
2023-02-20T03:58:51.163Z,10.2
2023-02-20T04:01:24.204Z,10.2
2023-02-20T04:04:05.500Z,10.2
2023-02-20T04:06:38.398Z,10.2
2023-02-20T04:09:11.176Z,10.2
2023-02-20T04:11:46.594Z,10.3
2023-02-20T04:14:23.316Z,10.3
2023-02-20T04:16:55.701Z,10.2
2023-02-20T04:19:27.487Z,10.2
2023-02-20T04:21:59.902Z,10.2
2023-02-20T04:24:32.236Z,10.2
2023-02-20T04:27:09.324Z,10.2
2023-02-20T04:29:42.121Z,10.3
2023-02-20T04:32:15.239Z,10.3
2023-02-20T04:34:52.062Z,10.2
2023-02-20T04:37:29.143Z,10.3
2023-02-20T04:40:05.948Z,10.3
2023-02-20T04:42:39.859Z,10.3
2023-02-20T04:45:16.849Z,10.2
2023-02-20T04:47:50.137Z,10.3
2023-02-20T04:50:22.715Z,10.3
2023-02-20T04:53:00.246Z,10.2
2023-02-20T04:55:33.651Z,10.2
2023-02-20T04:58:05.552Z,10.2
2023-02-20T05:00:37.743Z,10.2
2023-02-20T05:03:10.383Z,10.2
2023-02-20T05:05:46.480Z,10.2
2023-02-20T05:08:23.192Z,10.2
2023-02-20T05:11:04.577Z,10.1
2023-02-20T05:13:42.678Z,10.2
2023-02-20T05:16:19.670Z,10.1
2023-02-20T05:18:53.646Z,10.1
2023-02-20T05:21:27.659Z,10.1
2023-02-20T05:24:06.498Z,10.1
2023-02-20T05:26:41.619Z,10.1
2023-02-20T05:29:22.626Z,10
2023-02-20T05:31:55.931Z,10.1
2023-02-20T05:34:32.319Z,10
2023-02-20T05:37:08.563Z,9.9
2023-02-20T05:42:22.558Z,9.8
2023-02-20T05:44:55.509Z,9.8
2023-02-20T05:47:28.287Z,9.8
2023-02-20T05:50:09.505Z,9.8
2023-02-20T05:52:42.362Z,9.9
2023-02-20T05:55:19.351Z,9.9
2023-02-20T05:57:57.754Z,9.9
2023-02-20T06:00:35.362Z,9.9
2023-02-20T06:03:07.609Z,9.9
2023-02-20T06:05:45.259Z,9.9
2023-02-20T06:08:23.444Z,9.9
2023-02-20T06:10:56.476Z,10
2023-02-20T06:13:34.602Z,10
2023-02-20T06:16:11.976Z,10
2023-02-20T06:18:48.624Z,9.9
2023-02-20T06:21:25.685Z,10
2023-02-20T06:24:02.299Z,9.9
2023-02-20T06:26:39.342Z,10
2023-02-20T06:29:12.679Z,10.1
2023-02-20T06:31:46.433Z,10.1
2023-02-20T06:34:19.305Z,10.1
2023-02-20T06:36:52.272Z,10.1
2023-02-20T06:39:28.867Z,10.1
2023-02-20T06:42:07.101Z,10.1
2023-02-20T06:44:40.072Z,10
2023-02-20T06:47:17.142Z,10.1
2023-02-20T06:49:53.882Z,10.2
2023-02-20T06:52:30.356Z,10.1
2023-02-20T06:55:06.988Z,10.1
2023-02-20T06:57:38.991Z,10.1
2023-02-20T07:00:16.068Z,10.2
2023-02-20T07:02:48.754Z,10.2
2023-02-20T07:05:21.024Z,10.2
2023-02-20T07:07:55.089Z,10.3
2023-02-20T07:10:33.844Z,10.4
2023-02-20T07:13:06.807Z,10.5
2023-02-20T07:15:42.832Z,10.4
2023-02-20T07:18:15.916Z,10.5
2023-02-20T07:20:49.373Z,10.4
2023-02-20T07:23:21.909Z,10.4
2023-02-20T07:25:55.553Z,10.4
2023-02-20T07:28:37.090Z,10.3
2023-02-20T07:31:09.619Z,10.3
2023-02-20T07:33:43.762Z,10.4
2023-02-20T07:36:17.263Z,10.5
2023-02-20T07:38:58.784Z,10.5
2023-02-20T07:41:31.177Z,10.5
2023-02-20T07:44:08.451Z,10.5
2023-02-20T07:46:45.853Z,10.6
2023-02-20T07:49:18.533Z,10.7
2023-02-20T07:51:57.547Z,10.7
2023-02-20T07:54:35.375Z,10.6
2023-02-20T07:57:09.364Z,10.8
2023-02-20T07:59:43.501Z,10.8
2023-02-20T08:02:20.465Z,10.8
2023-02-20T08:04:57.278Z,10.9
2023-02-20T08:07:34.520Z,10.9
2023-02-20T08:10:07.627Z,11
2023-02-20T08:12:44.389Z,11.2
2023-02-20T08:15:20.978Z,11.3
2023-02-20T08:17:58.130Z,11.4
2023-02-20T08:20:34.973Z,11.3
2023-02-20T08:23:08.038Z,11.4
2023-02-20T08:25:44.085Z,11.6
2023-02-20T08:28:21.543Z,11.6
2023-02-20T08:30:59.504Z,11.7
2023-02-20T08:33:32.606Z,11.6
2023-02-20T08:36:05.445Z,11.6
2023-02-20T08:38:38.161Z,11.6
2023-02-20T08:41:19.666Z,11.7
2023-02-20T08:43:52.460Z,11.7
2023-02-20T08:46:25.027Z,11.7
2023-02-20T08:49:01.543Z,11.8
2023-02-20T08:51:38.156Z,11.7
2023-02-20T08:54:11.202Z,11.8
2023-02-20T08:56:47.900Z,11.8
2023-02-20T08:59:21.377Z,11.8
2023-02-20T09:01:53.551Z,11.7
2023-02-20T09:04:27.728Z,11.8
2023-02-20T09:07:05.466Z,11.9
2023-02-20T09:09:39.143Z,12.1
2023-02-20T09:12:16.608Z,12.1
2023-02-20T09:14:50.695Z,12.2
2023-02-20T09:17:27.541Z,12.3
2023-02-20T09:20:00.373Z,12.5
2023-02-20T09:22:36.879Z,12.5
2023-02-20T09:25:13.231Z,12.6
2023-02-20T09:27:51.345Z,12.8
2023-02-20T09:30:30.587Z,12.8
2023-02-20T09:33:08.140Z,12.9
2023-02-20T09:35:42.121Z,12.9
2023-02-20T09:38:15.796Z,12.8
2023-02-20T09:40:50.485Z,12.8
2023-02-20T09:43:28.236Z,13
2023-02-20T09:46:06.222Z,12.9
2023-02-20T09:48:39.440Z,12.9
2023-02-20T09:51:16.194Z,12.8
2023-02-20T09:53:49.778Z,12.8
2023-02-20T09:56:26.281Z,12.8
2023-02-20T09:59:03.064Z,12.9
2023-02-20T10:01:36.801Z,12.9
2023-02-20T10:04:11.559Z,12.9
2023-02-20T10:06:48.770Z,12.9
2023-02-20T10:09:21.124Z,13
2023-02-20T10:11:58.635Z,13.1
2023-02-20T10:14:36.451Z,13.1
2023-02-20T10:17:13.061Z,13
2023-02-20T10:19:51.273Z,13.1
2023-02-20T10:22:28.144Z,13.1
2023-02-20T10:25:01.728Z,13.2
2023-02-20T10:27:37.995Z,13.2
2023-02-20T10:30:15.936Z,13.2
2023-02-20T10:32:52.939Z,13.3
2023-02-20T10:35:27.417Z,13.3
2023-02-20T10:38:04.342Z,13.2
2023-02-20T10:40:37.772Z,13.3
2023-02-20T10:43:15.747Z,13.4
2023-02-20T10:45:51.749Z,13.4
2023-02-20T10:48:28.938Z,13.4
2023-02-20T10:51:06.891Z,13.4
2023-02-20T10:53:42.829Z,13.5
2023-02-20T10:56:15.981Z,13.6
2023-02-20T10:58:49.783Z,13.7
2023-02-20T11:01:26.871Z,13.7
2023-02-20T11:04:01.382Z,13.9
2023-02-20T11:06:38.264Z,13.9
2023-02-20T11:09:16.574Z,14.1
2023-02-20T11:11:53.901Z,14.1
2023-02-20T11:14:37.832Z,14.1
2023-02-20T11:17:03.997Z,14
2023-02-20T11:19:37.325Z,14.1
2023-02-20T11:22:15.248Z,14
2023-02-20T11:24:52.451Z,14.1
2023-02-20T11:27:25.139Z,14.1
2023-02-20T11:29:58.993Z,14.2
2023-02-20T11:32:35.729Z,14.2
2023-02-20T11:35:09.489Z,14.3
2023-02-20T11:37:53.938Z,14.2
2023-02-20T11:40:16.182Z,14.3
2023-02-20T11:42:48.498Z,14.3
2023-02-20T11:45:26.334Z,14.3
2023-02-20T11:47:57.294Z,14.4
2023-02-20T11:50:38.212Z,14.4
2023-02-20T11:53:15.220Z,14.4
2023-02-20T11:55:58.626Z,14.4
2023-02-20T11:58:25.342Z,14.5
2023-02-20T12:01:03.190Z,14.5
2023-02-20T12:03:40.331Z,14.6
2023-02-20T12:06:13.715Z,14.6
2023-02-20T12:08:50.696Z,14.7
2023-02-20T12:11:27.477Z,14.6
2023-02-20T12:14:04.541Z,14.7
2023-02-20T12:16:41.655Z,14.9
2023-02-20T12:19:14.318Z,14.9
2023-02-20T12:21:51.135Z,15.1
2023-02-20T12:24:30.265Z,15.1
2023-02-20T12:27:12.065Z,15.2
2023-02-20T12:29:45.374Z,15.3
2023-02-20T12:32:18.899Z,15.3
2023-02-20T12:34:51.983Z,15.4
2023-02-20T12:37:28.321Z,15.3
2023-02-20T12:40:02.067Z,15.2
2023-02-20T12:42:38.687Z,15.3
2023-02-20T12:45:15.445Z,15.4
2023-02-20T12:47:51.565Z,15.5
2023-02-20T12:50:22.690Z,15.4
2023-02-20T12:53:00.591Z,15.6
2023-02-20T12:55:36.889Z,15.7
2023-02-20T12:58:12.844Z,15.8
2023-02-20T13:00:50.873Z,15.8
2023-02-20T13:03:24.134Z,15.8
2023-02-20T13:06:02.192Z,16
2023-02-20T13:08:35.196Z,16
2023-02-20T13:11:09.282Z,16.1
2023-02-20T13:13:46.680Z,16.1
2023-02-20T13:16:24.077Z,16.3
2023-02-20T13:19:01.737Z,16.4
2023-02-20T13:21:39.021Z,16.5
2023-02-20T13:24:20.686Z,16.6
2023-02-20T13:26:54.194Z,16.7
2023-02-20T13:29:27.178Z,16.7
2023-02-20T13:32:01.261Z,16.8
2023-02-20T13:34:38.690Z,16.9
2023-02-20T13:37:11.931Z,16.9
2023-02-20T13:39:49.772Z,17
2023-02-20T13:42:23.897Z,17
2023-02-20T13:44:57.633Z,17.1
2023-02-20T13:47:39.665Z,17.2
2023-02-20T13:50:12.155Z,17
2023-02-20T13:52:49.454Z,17
2023-02-20T13:55:30.951Z,17
2023-02-20T13:58:07.319Z,17
2023-02-20T14:00:42.330Z,16.8
2023-02-20T14:03:17.920Z,16.7
2023-02-20T14:05:51.954Z,16.6
2023-02-20T14:08:29.188Z,16.6
2023-02-20T14:11:05.911Z,16.5
2023-02-20T14:13:47.858Z,16.5
2023-02-20T14:16:25.589Z,16.5
2023-02-20T14:18:59.117Z,16.4
2023-02-20T14:21:38.738Z,16.3
2023-02-20T14:24:10.149Z,16.3
2023-02-20T14:26:47.541Z,16.2
2023-02-20T14:29:25.857Z,16.2
2023-02-20T14:32:03.103Z,16.1
2023-02-20T14:34:37.028Z,16.1
2023-02-20T14:37:15.774Z,16
2023-02-20T14:39:52.607Z,15.9
2023-02-20T14:42:31.081Z,15.9
2023-02-20T14:45:08.769Z,15.9
2023-02-20T14:47:41.395Z,15.9
2023-02-20T14:50:18.964Z,15.8
2023-02-20T14:52:52.278Z,15.8
2023-02-20T14:55:30.830Z,15.7
2023-02-20T14:58:07.432Z,15.7
2023-02-20T15:00:45.494Z,15.7
2023-02-20T15:03:30.507Z,15.6
2023-02-20T15:06:01.934Z,15.6
2023-02-20T15:08:34.531Z,15.5
2023-02-20T15:11:08.810Z,15.4
2023-02-20T15:13:40.968Z,15.4
2023-02-20T15:16:18.373Z,15.4
2023-02-20T15:18:59.137Z,15.4
2023-02-20T15:21:41.735Z,15.5
2023-02-20T15:24:15.714Z,15.5
2023-02-20T15:26:48.193Z,15.4
2023-02-20T15:29:23.081Z,15.4
2023-02-20T15:32:02.282Z,15.3
2023-02-20T15:34:38.189Z,15.3
2023-02-20T15:37:11.541Z,15.3
2023-02-20T15:39:48.363Z,15.3
2023-02-20T15:42:22.082Z,15.3
2023-02-20T15:44:58.212Z,15.2
2023-02-20T15:47:32.884Z,15.2
2023-02-20T15:50:10.393Z,15.1
2023-02-20T15:52:48.402Z,15.1
2023-02-20T15:55:22.067Z,15
2023-02-20T15:57:59.306Z,14.9
2023-02-20T16:00:36.930Z,14.9
2023-02-20T16:03:11.042Z,14.9
2023-02-20T16:05:44.180Z,14.9
2023-02-20T16:08:22.775Z,14.8
2023-02-20T16:11:03.319Z,14.8
2023-02-20T16:13:40.907Z,14.8
2023-02-20T16:16:23.822Z,14.7
2023-02-20T16:18:53.931Z,14.8
2023-02-20T16:21:28.726Z,14.7
2023-02-20T16:24:05.929Z,14.6
2023-02-20T16:26:38.262Z,14.6
2023-02-20T16:29:12.017Z,14.6
2023-02-20T16:31:50.257Z,14.5
2023-02-20T16:34:23.393Z,14.3
2023-02-20T16:37:01.282Z,14.3
2023-02-20T16:39:35.815Z,14.3
2023-02-20T16:42:16.106Z,14.3
2023-02-20T16:44:53.924Z,14.2
2023-02-20T16:47:26.164Z,14.2
2023-02-20T16:50:03.929Z,14.1
2023-02-20T16:52:36.905Z,14.1
2023-02-20T16:55:11.143Z,14.1
2023-02-20T16:57:48.056Z,14
2023-02-20T17:00:21.694Z,14
2023-02-20T17:03:02.255Z,14
2023-02-20T17:05:35.318Z,14
2023-02-20T17:08:12.299Z,13.8
2023-02-20T17:10:46.562Z,13.8
2023-02-20T17:13:19.235Z,13.8
2023-02-20T17:15:56.578Z,13.7
2023-02-20T17:18:34.134Z,13.7
2023-02-20T17:21:11.213Z,13.7
2023-02-20T17:23:46.128Z,13.7
2023-02-20T17:26:20.474Z,13.6
2023-02-20T17:28:54.977Z,13.6
2023-02-20T17:31:32.284Z,13.5
2023-02-20T17:34:05.158Z,13.5
2023-02-20T17:36:42.903Z,13.5
2023-02-20T17:39:19.806Z,13.5
2023-02-20T17:41:53.133Z,13.4
2023-02-20T17:44:26.771Z,13.4
2023-02-20T17:47:04.904Z,13.1
2023-02-20T17:49:42.788Z,13.1
2023-02-20T17:52:15.868Z,13
2023-02-20T17:54:50.856Z,12.9
2023-02-20T17:57:32.955Z,12.9
2023-02-20T18:00:09.802Z,12.9
2023-02-20T18:02:45.300Z,12.9
2023-02-20T18:05:20.560Z,12.8
2023-02-20T18:07:53.801Z,12.8
2023-02-20T18:10:35.917Z,12.7
2023-02-20T18:13:10.657Z,12.7
2023-02-20T18:15:43.839Z,12.7
2023-02-20T18:18:17.576Z,12.6
2023-02-20T18:20:50.516Z,12.5
2023-02-20T18:23:28.540Z,12.5
2023-02-20T18:26:01.567Z,12.3
2023-02-20T18:28:38.340Z,12.3
2023-02-20T18:31:15.450Z,12.2
2023-02-20T18:33:48.377Z,12
2023-02-20T18:36:27.702Z,12.1
2023-02-20T18:39:01.426Z,12.1
2023-02-20T18:41:35.961Z,12.1
2023-02-20T18:44:12.832Z,12.1
2023-02-20T18:46:51.750Z,12
2023-02-20T18:49:28.881Z,12
2023-02-20T18:52:01.538Z,11.9
2023-02-20T18:54:42.995Z,11.9
2023-02-20T18:57:15.557Z,11.8
2023-02-20T18:59:49.558Z,11.8
2023-02-20T19:02:27.734Z,11.7
2023-02-20T19:05:02.485Z,11.7
2023-02-20T19:07:40.205Z,11.6
2023-02-20T19:10:14.844Z,11.6
2023-02-20T19:12:50.501Z,11.5
2023-02-20T19:15:30.995Z,11.4
2023-02-20T19:18:04.751Z,11.4
2023-02-20T19:20:39.312Z,11.3
2023-02-20T19:23:17.570Z,11.2
2023-02-20T19:25:53.450Z,11.2
2023-02-20T19:28:30.464Z,11.1
2023-02-20T19:31:12.194Z,11.1
2023-02-20T19:33:49.401Z,11
2023-02-20T19:36:23.623Z,11.1
2023-02-20T19:39:00.693Z,11
2023-02-20T19:41:43.121Z,10.9
2023-02-20T19:44:25.910Z,10.9
2023-02-20T19:47:00.635Z,11
2023-02-20T19:49:40.307Z,10.9
2023-02-20T19:52:14.196Z,10.9
2023-02-20T19:54:51.960Z,10.9
2023-02-20T19:57:27.537Z,10.8
2023-02-20T20:00:04.085Z,10.8
2023-02-20T20:02:40.202Z,10.8
2023-02-20T20:05:22.153Z,10.7
2023-02-20T20:08:06.870Z,10.7
2023-02-20T20:10:44.272Z,10.7
2023-02-20T20:13:16.587Z,10.7
2023-02-20T20:15:53.442Z,10.7
2023-02-20T20:18:30.663Z,10.6
2023-02-20T20:21:05.236Z,10.6
2023-02-20T20:23:42.597Z,10.5
2023-02-20T20:26:22.068Z,10.5
2023-02-20T20:28:56.075Z,10.4
2023-02-20T20:31:40.892Z,10.3
2023-02-20T20:34:18.570Z,10.3
2023-02-20T20:36:56.697Z,10.2
2023-02-20T20:39:34.307Z,10.1
2023-02-20T20:42:14.913Z,10
2023-02-20T20:44:52.041Z,10
2023-02-20T20:47:26.048Z,10
2023-02-20T20:50:01.265Z,10
2023-02-20T20:52:44.043Z,10
2023-02-20T20:55:17.459Z,9.9
2023-02-20T20:57:53.712Z,9.9
2023-02-20T21:00:28.496Z,9.8
2023-02-20T21:03:07.150Z,9.8
2023-02-20T21:05:39.878Z,9.8
2023-02-20T21:08:17.539Z,9.8
2023-02-20T21:10:53.291Z,9.8
2023-02-20T21:13:26.958Z,9.8
2023-02-20T21:16:04.023Z,9.9
2023-02-20T21:18:40.574Z,9.9
2023-02-20T21:21:21.842Z,10
2023-02-20T21:23:54.466Z,10
2023-02-20T21:26:32.466Z,10
2023-02-20T21:29:07.053Z,10
2023-02-20T21:31:44.318Z,10
2023-02-20T21:34:23.620Z,9.9
2023-02-20T21:37:01.248Z,9.9
2023-02-20T21:39:37.186Z,9.8
2023-02-20T21:42:11.572Z,9.8
2023-02-20T21:44:44.318Z,9.8
2023-02-20T21:47:19.107Z,9.7
2023-02-20T21:49:54.030Z,9.7
2023-02-20T21:52:26.196Z,9.6
2023-02-20T21:55:02.936Z,9.6
2023-02-20T21:57:39.058Z,9.6
2023-02-20T22:00:20.883Z,9.6
2023-02-20T22:02:57.419Z,9.6
2023-02-20T22:05:35.060Z,9.6
2023-02-20T22:08:09.369Z,9.5
2023-02-20T22:10:40.900Z,9.5
2023-02-20T22:13:18.366Z,9.5
2023-02-20T22:15:52.156Z,9.5
2023-02-20T22:18:27.737Z,9.5
2023-02-20T22:21:09.059Z,9.5
2023-02-20T22:23:42.612Z,9.5
2023-02-20T22:26:23.065Z,9.4
2023-02-20T22:28:56.989Z,9.4
2023-02-20T22:31:33.302Z,9.4
2023-02-20T22:34:07.933Z,9.4
2023-02-20T22:36:43.666Z,9.3
2023-02-20T22:39:21.031Z,9.2
2023-02-20T22:42:00.271Z,9.2
2023-02-20T22:44:39.034Z,9.1
2023-02-20T22:47:15.995Z,9.1
2023-02-20T22:49:49.004Z,9.1
2023-02-20T22:52:26.706Z,9.1
2023-02-20T22:55:05.368Z,9.1
2023-02-20T22:57:41.028Z,9
2023-02-20T23:00:20.002Z,9
2023-02-20T23:02:54.205Z,9
2023-02-20T23:08:10.561Z,9
2023-02-20T23:10:49.284Z,9
2023-02-20T23:13:28.267Z,8.9
2023-02-20T23:16:04.563Z,8.9
2023-02-20T23:18:37.323Z,8.8
2023-02-20T23:21:16.608Z,8.7
2023-02-20T23:23:49.187Z,8.8
2023-02-20T23:26:22.259Z,8.9
2023-02-20T23:29:02.314Z,8.9
2023-02-20T23:31:39.538Z,8.9
2023-02-20T23:34:16.548Z,9
2023-02-20T23:36:53.311Z,9
2023-02-20T23:39:26.105Z,9.1
2023-02-20T23:42:03.200Z,9.1
2023-02-20T23:44:40.313Z,9.1
2023-02-20T23:50:06.853Z,9.3
2023-02-20T23:52:39.646Z,9.3
2023-02-20T23:55:16.486Z,9.3
2023-02-20T23:57:49.869Z,9.4
